Time;durP1;ratioP1;P1;durP2;ratioP2;P2;SDS_P1;SDS_P2;PMS_P1;PMS_P2;Temp;Humidity;BMP_temperature;BMP_pressure;BME280_temperature;BME280_humidity;BME280_pressure;Samples;Min_cycle;Max_cycle;Signal;HPM_P1;HPM_P2
2022/02/02 00:02:05;;;;;;;;;;;22.10;28.60;;;;;;5087762;28;20035;-67
2022/02/02 00:04:35;;;;;;;;;;;22.10;28.60;;;;;;5089406;28;20309;-67
2022/02/02 00:09:55;;;;;;;;;;;22.10;28.60;;;;;;5088564;28;20019;-68
2022/02/02 00:12:42;;;;;;;;;;;22.10;28.60;;;;;;5087167;28;20464;-68
2022/02/02 00:18:12;;;;;;;;;;;22.20;28.70;;;;;;5086764;28;19928;-67
2022/02/02 00:21:01;;;;;;;;;;;22.20;28.60;;;;;;5088387;28;19924;-67
2022/02/02 00:26:52;;;;;;;;;;;22.20;28.60;;;;;;5089653;28;20192;-67
2022/02/02 00:29:22;;;;;;;;;;;22.10;28.60;;;;;;5088171;28;19924;-68
2022/02/02 00:32:02;;;;;;;;;;;22.20;28.60;;;;;;5087544;28;19920;-67
2022/02/02 00:34:30;;;;;;;;;;;22.10;28.60;;;;;;5088101;28;19971;-68
2022/02/02 00:36:58;;;;;;;;;;;22.20;28.60;;;;;;5089115;28;19927;-67
2022/02/02 00:39:26;;;;;;;;;;;22.10;28.60;;;;;;5088366;28;19928;-68
2022/02/02 00:41:56;;;;;;;;;;;22.20;28.60;;;;;;5087067;28;19920;-67
2022/02/02 00:44:24;;;;;;;;;;;22.20;28.60;;;;;;5088180;28;19920;-68
2022/02/02 00:46:52;;;;;;;;;;;22.10;28.60;;;;;;5088958;28;20014;-68
2022/02/02 00:49:19;;;;;;;;;;;22.20;28.60;;;;;;5088722;28;19955;-68
2022/02/02 00:51:47;;;;;;;;;;;22.10;28.60;;;;;;5087513;28;20173;-67
2022/02/02 00:54:15;;;;;;;;;;;22.20;28.60;;;;;;5088190;28;19997;-67
2022/02/02 00:56:42;;;;;;;;;;;22.20;28.60;;;;;;5093127;28;19973;-68
2022/02/02 01:02:41;;;;;;;;;;;22.10;28.60;;;;;;5090524;28;19961;-68
2022/02/02 01:05:08;;;;;;;;;;;22.10;28.60;;;;;;5093427;28;19935;-67
2022/02/02 01:08:20;;;;;;;;;;;22.10;29.10;;;;;;5091772;28;19993;-66
2022/02/02 01:10:30;;;;;;;;;;;22.10;28.60;;;;;;5091786;28;20537;-68
2022/02/02 01:19:35;;;;;;;;;;;22.10;28.60;;;;;;5091941;28;19973;-68
2022/02/02 01:22:17;;;;;;;;;;;22.10;28.60;;;;;;5089797;28;19974;-67
2022/02/02 01:27:50;;;;;;;;;;;22.10;28.60;;;;;;5091392;28;19920;-67
2022/02/02 01:30:17;;;;;;;;;;;22.10;28.60;;;;;;5092267;28;19926;-67
2022/02/02 01:32:44;;;;;;;;;;;22.10;28.60;;;;;;5089908;28;19982;-68
2022/02/02 01:35:16;;;;;;;;;;;22.00;29.00;;;;;;5092843;28;19963;-67
2022/02/02 01:37:45;;;;;;;;;;;22.10;28.60;;;;;;5091163;28;20014;-67
2022/02/02 01:40:25;;;;;;;;;;;22.10;28.60;;;;;;5091894;28;19955;-67
2022/02/02 01:42:59;;;;;;;;;;;22.10;28.70;;;;;;5089598;28;19920;-68
2022/02/02 01:45:35;;;;;;;;;;;22.10;28.60;;;;;;5092933;28;19920;-69
2022/02/02 01:52:11;;;;;;;;;;;22.10;28.60;;;;;;5090774;28;19954;-67
2022/02/02 01:57:51;;;;;;;;;;;22.00;28.60;;;;;;5091534;28;19963;-67
2022/02/02 01:59:58;;;;;;;;;;;22.10;28.60;;;;;;5091218;28;19920;-67
2022/02/02 02:02:25;;;;;;;;;;;22.10;28.60;;;;;;5089315;28;20337;-67
2022/02/02 02:04:53;;;;;;;;;;;22.10;28.60;;;;;;5092601;28;20002;-67
2022/02/02 02:07:21;;;;;;;;;;;22.10;28.60;;;;;;5090842;28;19975;-67
2022/02/02 02:09:48;;;;;;;;;;;22.10;28.60;;;;;;5091576;28;19924;-67
2022/02/02 02:12:15;;;;;;;;;;;22.10;28.60;;;;;;5089008;28;20408;-67
2022/02/02 02:21:49;;;;;;;;;;;22.10;28.60;;;;;;5089729;28;19918;-67
2022/02/02 02:24:16;;;;;;;;;;;22.10;28.60;;;;;;5090653;28;19973;-67
2022/02/02 02:26:43;;;;;;;;;;;22.10;28.60;;;;;;5091753;28;20023;-68
2022/02/02 02:32:23;;;;;;;;;;;22.10;28.60;;;;;;5089461;28;19975;-67
2022/02/02 02:35:16;;;;;;;;;;;22.10;28.60;;;;;;5090893;28;19934;-68
2022/02/02 02:38:12;;;;;;;;;;;22.10;28.60;;;;;;5089401;28;19971;-67
2022/02/02 02:55:44;;;;;;;;;;;22.10;28.60;;;;;;5090390;28;19920;-68
2022/02/02 03:30:03;;;;;;;;;;;22.00;28.60;;;;;;5089734;28;20335;-68
2022/02/02 03:50:21;;;;;;;;;;;22.00;28.60;;;;;;5089763;28;19924;-68
2022/02/02 03:57:07;;;;;;;;;;;22.00;28.60;;;;;;5090863;28;20446;-67
2022/02/02 03:59:35;;;;;;;;;;;22.00;28.60;;;;;;5073306;28;19924;-67
2022/02/02 04:02:14;;;;;;;;;;;22.00;28.60;;;;;;5087947;28;20019;-67
2022/02/02 04:04:52;;;;;;;;;;;22.00;28.60;;;;;;5089653;28;19979;-67
2022/02/02 04:07:22;;;;;;;;;;;22.00;28.60;;;;;;5088864;28;20503;-67
2022/02/02 04:09:50;;;;;;;;;;;22.00;28.60;;;;;;5088957;28;19950;-68
2022/02/02 04:12:34;;;;;;;;;;;22.00;28.60;;;;;;5087580;28;19974;-67
2022/02/02 04:16:52;;;;;;;;;;;22.10;28.60;;;;;;5072119;28;19978;-67
2022/02/02 04:55:35;;;;;;;;;;;22.00;28.60;;;;;;5089902;28;19920;-66
2022/02/02 05:02:37;;;;;;;;;;;22.00;28.60;;;;;;5087509;28;19915;-67
2022/02/02 05:04:43;;;;;;;;;;;22.00;28.60;;;;;;5087742;28;19927;-66
2022/02/02 05:07:17;;;;;;;;;;;22.00;28.60;;;;;;5088523;28;19994;-67
2022/02/02 05:10:02;;;;;;;;;;;22.00;28.60;;;;;;5087724;28;19977;-66
2022/02/02 05:18:42;;;;;;;;;;;22.00;28.60;;;;;;5086888;28;20357;-67
2022/02/02 05:28:26;;;;;;;;;;;22.00;28.60;;;;;;5088233;28;20407;-67
2022/02/02 05:42:21;;;;;;;;;;;22.00;28.60;;;;;;5068603;28;19914;-67
2022/02/02 05:59:39;;;;;;;;;;;22.00;28.60;;;;;;5093442;28;19981;-67
2022/02/02 06:02:07;;;;;;;;;;;22.00;28.60;;;;;;5092298;28;19972;-67
2022/02/02 06:04:35;;;;;;;;;;;22.00;28.60;;;;;;5092774;28;19920;-67
2022/02/02 06:07:02;;;;;;;;;;;22.00;28.60;;;;;;5093292;28;19971;-67
2022/02/02 06:09:34;;;;;;;;;;;22.00;28.60;;;;;;5093365;28;20002;-67
2022/02/02 06:12:01;;;;;;;;;;;21.90;28.50;;;;;;5091709;28;19987;-67
2022/02/02 06:14:30;;;;;;;;;;;22.00;28.50;;;;;;5091021;28;19927;-68
2022/02/02 06:17:02;;;;;;;;;;;21.90;28.40;;;;;;5092064;28;19982;-67
2022/02/02 06:19:36;;;;;;;;;;;21.90;28.40;;;;;;5091179;28;19927;-66
2022/02/02 06:22:09;;;;;;;;;;;21.90;28.40;;;;;;5090871;28;19920;-64
2022/02/02 06:24:40;;;;;;;;;;;22.00;28.50;;;;;;5092504;28;19967;-63
2022/02/02 06:27:11;;;;;;;;;;;22.00;28.50;;;;;;5091987;28;19975;-64
2022/02/02 06:29:41;;;;;;;;;;;22.00;28.40;;;;;;5093798;28;20369;-65
2022/02/02 06:32:12;;;;;;;;;;;22.00;28.40;;;;;;5080228;28;19959;-64
2022/02/02 06:34:45;;;;;;;;;;;22.10;28.40;;;;;;5088209;28;21582;-62
2022/02/02 06:37:13;;;;;;;;;;;22.10;28.30;;;;;;5081743;28;19920;-66
2022/02/02 06:39:40;;;;;;;;;;;22.20;28.30;;;;;;5088891;28;20642;-63
2022/02/02 06:42:09;;;;;;;;;;;22.20;28.20;;;;;;5086180;28;19963;-63
2022/02/02 06:44:39;;;;;;;;;;;22.30;28.10;;;;;;5090905;28;19920;-64
2022/02/02 06:47:07;;;;;;;;;;;22.40;28.20;;;;;;5083774;28;19963;-66
2022/02/02 06:49:36;;;;;;;;;;;22.50;28.70;;;;;;5084711;28;20806;-68
2022/02/02 06:52:12;;;;;;;;;;;22.50;29.20;;;;;;5074169;28;19974;-69
2022/02/02 06:54:51;;;;;;;;;;;22.60;29.20;;;;;;5084260;28;20436;-68
2022/02/02 06:57:24;;;;;;;;;;;22.70;29.00;;;;;;5088969;28;20484;-67
2022/02/02 07:00:18;;;;;;;;;;;22.80;28.80;;;;;;5072505;28;19932;-67
2022/02/02 07:02:58;;;;;;;;;;;22.80;28.80;;;;;;5081229;28;20339;-67
2022/02/02 07:05:32;;;;;;;;;;;22.90;29.30;;;;;;5090594;28;19920;-67
2022/02/02 07:08:21;;;;;;;;;;;22.90;28.90;;;;;;5087288;28;19927;-64
2022/02/02 07:11:07;;;;;;;;;;;23.00;28.90;;;;;;5067039;28;19920;-64
2022/02/02 07:13:50;;;;;;;;;;;23.10;28.90;;;;;;5080780;28;20165;-67
2022/02/02 07:19:22;;;;;;;;;;;23.30;28.50;;;;;;5089707;28;20333;-64
2022/02/02 07:22:09;;;;;;;;;;;23.40;28.60;;;;;;5083696;28;20369;-62
2022/02/02 07:25:12;;;;;;;;;;;23.50;28.80;;;;;;5085176;28;19927;-63
2022/02/02 07:27:41;;;;;;;;;;;23.50;28.90;;;;;;5087378;28;20261;-68
2022/02/02 07:30:28;;;;;;;;;;;23.60;28.90;;;;;;5086377;28;20288;-61
2022/02/02 07:33:06;;;;;;;;;;;23.60;28.90;;;;;;5080531;28;20001;-61
2022/02/02 07:35:49;;;;;;;;;;;23.60;29.00;;;;;;5088225;28;19934;-64
2022/02/02 07:38:17;;;;;;;;;;;23.70;29.00;;;;;;5087537;28;20287;-62
2022/02/02 07:40:46;;;;;;;;;;;23.70;29.10;;;;;;5086443;28;19920;-64
2022/02/02 07:43:24;;;;;;;;;;;23.70;29.00;;;;;;5083393;28;19920;-62
2022/02/02 07:45:57;;;;;;;;;;;23.70;29.00;;;;;;5089038;28;19984;-64
2022/02/02 07:48:24;;;;;;;;;;;23.80;29.00;;;;;;5090001;28;19920;-64
2022/02/02 07:50:52;;;;;;;;;;;23.80;29.00;;;;;;5090158;28;20369;-63
2022/02/02 07:53:25;;;;;;;;;;;23.80;29.10;;;;;;5082440;28;19923;-66
2022/02/02 07:56:16;;;;;;;;;;;23.90;29.10;;;;;;5088877;28;19974;-66
2022/02/02 07:58:58;;;;;;;;;;;23.90;29.20;;;;;;5090327;28;19920;-67
2022/02/02 08:01:25;;;;;;;;;;;23.90;29.20;;;;;;5084726;28;19985;-68
2022/02/02 08:03:55;;;;;;;;;;;23.90;29.20;;;;;;5082345;28;19920;-63
2022/02/02 08:06:26;;;;;;;;;;;24.00;29.20;;;;;;5088208;28;19923;-64
2022/02/02 08:08:53;;;;;;;;;;;24.10;29.20;;;;;;5089114;28;19961;-64
2022/02/02 08:11:33;;;;;;;;;;;24.00;29.00;;;;;;5089020;28;19954;-64
2022/02/02 08:14:21;;;;;;;;;;;24.10;29.10;;;;;;5082765;28;20006;-63
2022/02/02 08:16:48;;;;;;;;;;;24.10;29.20;;;;;;5078855;28;20044;-63
2022/02/02 08:19:17;;;;;;;;;;;24.10;29.10;;;;;;5084624;28;19950;-63
2022/02/02 08:21:49;;;;;;;;;;;24.20;29.10;;;;;;5081050;28;20018;-61
2022/02/02 08:24:18;;;;;;;;;;;24.20;29.10;;;;;;5088665;28;19959;-63
2022/02/02 08:26:46;;;;;;;;;;;24.20;29.00;;;;;;5067018;28;20369;-65
2022/02/02 08:29:13;;;;;;;;;;;24.30;29.10;;;;;;5087550;28;19965;-62
2022/02/02 08:31:40;;;;;;;;;;;24.30;29.10;;;;;;5085457;28;19928;-62
2022/02/02 08:34:11;;;;;;;;;;;24.30;29.10;;;;;;5085771;28;20262;-61
2022/02/02 08:36:46;;;;;;;;;;;24.30;29.20;;;;;;5068041;28;20014;-62
2022/02/02 08:42:03;;;;;;;;;;;24.30;29.20;;;;;;5088950;28;19973;-63
2022/02/02 08:44:43;;;;;;;;;;;24.40;29.20;;;;;;5086384;28;19959;-63
2022/02/02 08:47:13;;;;;;;;;;;24.30;29.30;;;;;;5081091;28;19943;-64
2022/02/02 08:49:48;;;;;;;;;;;24.30;29.40;;;;;;5088560;28;20414;-68
2022/02/02 08:52:15;;;;;;;;;;;24.40;29.40;;;;;;5087751;28;19928;-62
2022/02/02 08:54:47;;;;;;;;;;;24.40;29.30;;;;;;5087600;28;19920;-63
2022/02/02 09:00:11;;;;;;;;;;;24.50;29.40;;;;;;5101588;28;19920;-60
2022/02/02 09:02:42;;;;;;;;;;;24.50;29.30;;;;;;5088317;28;20365;-61
2022/02/02 09:05:25;;;;;;;;;;;24.50;29.10;;;;;;5089231;28;19963;-66
2022/02/02 09:08:08;;;;;;;;;;;24.50;29.10;;;;;;5065821;28;19958;-63
2022/02/02 09:22:54;;;;;;;;;;;24.50;28.60;;;;;;5093107;28;19926;-62
2022/02/02 09:24:49;;;;;;;;;;;24.60;28.70;;;;;;5092785;28;20416;-63
2022/02/02 09:35:38;;;;;;;;;;;24.60;28.30;;;;;;5071249;28;19927;-63
2022/02/02 09:38:05;;;;;;;;;;;24.50;28.20;;;;;;5070569;28;19926;-62
2022/02/02 09:43:24;;;;;;;;;;;24.60;28.20;;;;;;5077836;28;19969;-63
2022/02/02 09:45:59;;;;;;;;;;;24.60;28.10;;;;;;5092280;28;19920;-62
2022/02/02 09:48:42;;;;;;;;;;;24.50;28.10;;;;;;5088821;28;19920;-62
2022/02/02 09:51:13;;;;;;;;;;;24.50;28.00;;;;;;5073849;28;20361;-62
2022/02/02 09:53:46;;;;;;;;;;;24.60;28.00;;;;;;5091236;28;20010;-62
2022/02/02 09:56:36;;;;;;;;;;;24.50;27.90;;;;;;5092096;28;20158;-62
2022/02/02 09:59:49;;;;;;;;;;;24.50;27.80;;;;;;5086396;28;20395;-63
2022/02/02 10:05:29;;;;;;;;;;;24.50;27.60;;;;;;5077265;28;20292;-63
2022/02/02 10:11:23;;;;;;;;;;;24.50;27.60;;;;;;5090129;28;20014;-66
2022/02/02 10:13:52;;;;;;;;;;;24.50;27.70;;;;;;5092546;28;19920;-67
2022/02/02 10:16:21;;;;;;;;;;;24.50;27.70;;;;;;5091167;28;20423;-63
2022/02/02 10:18:49;;;;;;;;;;;24.50;27.80;;;;;;5088680;28;20002;-63
2022/02/02 10:21:32;;;;;;;;;;;24.50;27.80;;;;;;5092105;28;19920;-63
2022/02/02 10:23:59;;;;;;;;;;;24.60;27.90;;;;;;5073519;28;20331;-62
2022/02/02 10:26:26;;;;;;;;;;;24.50;27.90;;;;;;5091598;28;19962;-67
2022/02/02 10:29:05;;;;;;;;;;;24.60;28.00;;;;;;5088256;28;19924;-67
2022/02/02 10:31:43;;;;;;;;;;;24.60;28.00;;;;;;5088240;28;20438;-66
2022/02/02 10:34:12;;;;;;;;;;;24.60;28.10;;;;;;5084439;28;19951;-67
2022/02/02 10:36:39;;;;;;;;;;;24.60;28.40;;;;;;5084931;28;19985;-68
2022/02/02 10:39:10;;;;;;;;;;;24.70;28.60;;;;;;5083488;28;19928;-65
2022/02/02 10:41:49;;;;;;;;;;;24.70;28.80;;;;;;5083654;28;20381;-67
2022/02/02 10:44:31;;;;;;;;;;;24.70;29.10;;;;;;5083113;28;19928;-66
2022/02/02 10:47:17;;;;;;;;;;;24.70;29.10;;;;;;5079888;28;19928;-65
2022/02/02 10:50:02;;;;;;;;;;;24.70;29.20;;;;;;5089594;28;20368;-67
2022/02/02 10:52:43;;;;;;;;;;;24.70;29.30;;;;;;5083865;28;19928;-66
2022/02/02 10:59:09;;;;;;;;;;;24.70;29.20;;;;;;5090366;28;19915;-68
2022/02/02 11:06:56;;;;;;;;;;;24.70;29.40;;;;;;5090581;28;20414;-63
2022/02/02 11:09:23;;;;;;;;;;;24.70;29.10;;;;;;5090240;28;19955;-64
2022/02/02 11:11:51;;;;;;;;;;;24.70;29.20;;;;;;5087725;28;19920;-63
2022/02/02 11:14:38;;;;;;;;;;;24.80;29.20;;;;;;5088054;28;19924;-64
2022/02/02 11:17:25;;;;;;;;;;;24.80;29.30;;;;;;5076294;28;19965;-63
2022/02/02 11:19:54;;;;;;;;;;;24.80;29.30;;;;;;5090083;28;19920;-66
2022/02/02 11:22:30;;;;;;;;;;;24.90;29.20;;;;;;5086774;28;20142;-66
2022/02/02 11:25:17;;;;;;;;;;;24.90;29.20;;;;;;5070839;28;20011;-66
2022/02/02 11:27:46;;;;;;;;;;;24.90;28.90;;;;;;5083886;28;20266;-67
2022/02/02 11:30:33;;;;;;;;;;;24.90;28.80;;;;;;5070159;28;19967;-66
2022/02/02 11:33:01;;;;;;;;;;;24.90;28.70;;;;;;5089803;27;19932;-63
2022/02/02 11:35:44;;;;;;;;;;;24.90;28.60;;;;;;5090351;28;19965;-63
2022/02/02 11:38:36;;;;;;;;;;;25.00;28.60;;;;;;5089409;28;19920;-64
2022/02/02 11:44:17;;;;;;;;;;;25.10;28.80;;;;;;5077008;28;19931;-64
2022/02/02 11:47:04;;;;;;;;;;;25.10;28.80;;;;;;5069885;28;19920;-64
2022/02/02 11:49:51;;;;;;;;;;;25.10;28.80;;;;;;5070731;28;19924;-63
2022/02/02 11:52:32;;;;;;;;;;;25.10;28.80;;;;;;5069658;28;19920;-64
2022/02/02 11:54:59;;;;;;;;;;;25.20;28.80;;;;;;5087841;28;19973;-63
2022/02/02 11:57:36;;;;;;;;;;;25.20;28.70;;;;;;5090435;28;20009;-68
2022/02/02 12:00:13;;;;;;;;;;;25.20;29.10;;;;;;5089614;28;19920;-68
2022/02/02 12:05:54;;;;;;;;;;;25.10;26.80;;;;;;5069311;28;19979;-65
2022/02/02 12:08:46;;;;;;;;;;;24.90;26.90;;;;;;5068910;28;19927;-63
2022/02/02 12:11:42;;;;;;;;;;;24.50;27.00;;;;;;5069505;28;19920;-63
2022/02/02 12:45:54;;;;;;;;;;;24.60;28.50;;;;;;5085133;28;19961;-66
2022/02/02 12:48:15;;;;;;;;;;;24.60;28.50;;;;;;5080167;28;19928;-65
2022/02/02 12:53:46;;;;;;;;;;;24.70;28.50;;;;;;5081264;28;19963;-64
2022/02/02 12:56:25;;;;;;;;;;;24.70;28.60;;;;;;5084039;28;20479;-65
2022/02/02 12:59:12;;;;;;;;;;;24.70;28.60;;;;;;5086931;28;19967;-70
2022/02/02 13:01:40;;;;;;;;;;;24.70;28.50;;;;;;5083742;28;19928;-63
2022/02/02 13:04:09;;;;;;;;;;;24.70;28.40;;;;;;5086850;28;19920;-66
2022/02/02 13:06:39;;;;;;;;;;;24.70;28.50;;;;;;5079516;28;19955;-66
2022/02/02 13:09:07;;;;;;;;;;;24.70;28.50;;;;;;5085338;28;19985;-65
2022/02/02 13:11:35;;;;;;;;;;;24.70;28.50;;;;;;5086124;28;19981;-63
2022/02/02 13:14:06;;;;;;;;;;;24.70;28.40;;;;;;5105041;28;20258;-64
2022/02/02 13:16:33;;;;;;;;;;;24.70;28.30;;;;;;5086296;28;20014;-65
2022/02/02 13:19:14;;;;;;;;;;;24.70;28.30;;;;;;5089912;28;20447;-64
2022/02/02 13:21:46;;;;;;;;;;;24.70;28.30;;;;;;5088696;28;20049;-63
2022/02/02 13:24:18;;;;;;;;;;;24.70;28.30;;;;;;5071017;28;19920;-63
2022/02/02 13:26:59;;;;;;;;;;;24.70;28.20;;;;;;5086382;28;19920;-64
2022/02/02 13:29:44;;;;;;;;;;;24.70;28.10;;;;;;5067324;28;19967;-66
2022/02/02 13:32:17;;;;;;;;;;;24.60;28.00;;;;;;5088111;28;19928;-63
2022/02/02 13:35:12;;;;;;;;;;;24.60;28.00;;;;;;5088876;28;20296;-63
2022/02/02 13:37:42;;;;;;;;;;;24.60;28.00;;;;;;5087017;28;20650;-63
2022/02/02 13:43:08;;;;;;;;;;;24.50;28.00;;;;;;5087925;28;19928;-63
2022/02/02 13:45:47;;;;;;;;;;;24.50;28.10;;;;;;5089481;28;19920;-63
2022/02/02 13:51:25;;;;;;;;;;;24.50;28.20;;;;;;5087915;28;19938;-64
2022/02/02 13:54:02;;;;;;;;;;;24.50;28.20;;;;;;5088286;28;19959;-63
2022/02/02 13:59:55;;;;;;;;;;;24.50;28.60;;;;;;5087834;28;19966;-64
2022/02/02 14:03:52;;;;;;;;;;;24.50;28.70;;;;;;5089724;28;20273;-62
2022/02/02 14:06:06;;;;;;;;;;;24.50;29.00;;;;;;5091610;28;19920;-62
2022/02/02 14:07:56;;;;;;;;;;;24.60;29.30;;;;;;5087910;28;19928;-65
2022/02/02 14:11:05;;;;;;;;;;;24.60;29.30;;;;;;5072312;28;20018;-64
2022/02/02 14:33:10;;;;;;;;;;;24.50;29.00;;;;;;5071709;28;19924;-66
2022/02/02 14:35:37;;;;;;;;;;;24.50;29.40;;;;;;5071211;28;20564;-65
2022/02/02 14:38:05;;;;;;;;;;;24.50;29.60;;;;;;5070965;28;19920;-65
2022/02/02 14:41:01;;;;;;;;;;;24.50;29.60;;;;;;5081056;28;19928;-66
2022/02/02 14:43:38;;;;;;;;;;;24.40;29.50;;;;;;5083304;28;19973;-62
2022/02/02 14:46:09;;;;;;;;;;;24.30;29.50;;;;;;5088790;28;19932;-61
2022/02/02 14:48:43;;;;;;;;;;;24.30;29.50;;;;;;5084950;28;20265;-63
2022/02/02 14:51:25;;;;;;;;;;;24.30;29.60;;;;;;5084947;28;19923;-62
2022/02/02 14:54:32;;;;;;;;;;;24.20;29.60;;;;;;5085121;28;20011;-62
2022/02/02 15:06:00;;;;;;;;;;;24.20;29.80;;;;;;5089780;28;19924;-63
2022/02/02 15:26:01;;;;;;;;;;;24.20;30.00;;;;;;5070791;28;20301;-65
2022/02/02 15:28:33;;;;;;;;;;;24.20;29.90;;;;;;5068737;28;20145;-63
2022/02/02 15:31:03;;;;;;;;;;;24.20;29.90;;;;;;5071172;28;19927;-63
2022/02/02 15:33:32;;;;;;;;;;;24.20;29.90;;;;;;5070162;28;20332;-64
2022/02/02 15:36:42;;;;;;;;;;;24.20;30.00;;;;;;5083118;28;19965;-64
2022/02/02 15:38:50;;;;;;;;;;;24.20;29.80;;;;;;5080994;28;19923;-65
2022/02/02 15:41:25;;;;;;;;;;;24.20;29.50;;;;;;5082320;28;20028;-65
2022/02/02 15:44:58;;;;;;;;;;;24.20;29.30;;;;;;5085492;28;20293;-64
2022/02/02 15:55:29;;;;;;;;;;;24.10;28.90;;;;;;5085393;28;20217;-65
2022/02/02 16:03:30;;;;;;;;;;;24.00;28.90;;;;;;5071860;28;19919;-65
2022/02/02 16:06:05;;;;;;;;;;;24.00;29.00;;;;;;5084175;28;20372;-65
2022/02/02 16:08:34;;;;;;;;;;;24.00;29.10;;;;;;5086790;28;20365;-64
2022/02/02 16:11:19;;;;;;;;;;;24.00;29.10;;;;;;5081677;28;19928;-64
2022/02/02 16:13:53;;;;;;;;;;;23.90;29.10;;;;;;5068201;28;19986;-67
2022/02/02 16:16:40;;;;;;;;;;;23.90;29.20;;;;;;5065898;28;19963;-65
2022/02/02 16:19:19;;;;;;;;;;;23.90;29.20;;;;;;5066845;28;19921;-65
2022/02/02 16:25:02;;;;;;;;;;;23.80;29.20;;;;;;5067212;28;19928;-65
2022/02/02 16:35:57;;;;;;;;;;;23.80;29.20;;;;;;5086510;28;19920;-65
2022/02/02 16:43:07;;;;;;;;;;;23.80;29.20;;;;;;5086033;28;20429;-64
2022/02/02 16:44:00;;;;;;;;;;;23.80;29.20;;;;;;5087260;28;19989;-66
2022/02/02 16:46:27;;;;;;;;;;;23.80;29.20;;;;;;5085782;28;19920;-66
2022/02/02 16:48:54;;;;;;;;;;;23.80;29.20;;;;;;5087443;28;19920;-64
2022/02/02 16:51:21;;;;;;;;;;;23.80;29.20;;;;;;5067602;28;20006;-64
2022/02/02 16:53:50;;;;;;;;;;;23.80;29.40;;;;;;5086751;28;19924;-64
2022/02/02 16:56:34;;;;;;;;;;;23.80;29.50;;;;;;5100851;28;19951;-63
2022/02/02 17:25:29;;;;;;;;;;;23.60;33.70;;;;;;5086597;28;20454;-63
2022/02/02 17:28:34;;;;;;;;;;;23.60;33.70;;;;;;5085411;28;19970;-63
2022/02/02 17:32:53;;;;;;;;;;;23.60;34.80;;;;;;5098141;28;19920;-63
2022/02/02 17:35:38;;;;;;;;;;;23.50;35.60;;;;;;5087309;28;20347;-63
2022/02/02 17:38:16;;;;;;;;;;;23.50;36.10;;;;;;5088852;28;19920;-63
2022/02/02 17:41:13;;;;;;;;;;;23.50;36.10;;;;;;5089727;28;20175;-63
2022/02/02 17:58:35;;;;;;;;;;;23.30;34.80;;;;;;5089037;28;20312;-63
2022/02/02 18:03:52;;;;;;;;;;;23.30;34.30;;;;;;5067798;28;20000;-63
2022/02/02 18:19:59;;;;;;;;;;;23.20;33.30;;;;;;5090216;28;19920;-63
2022/02/02 18:22:33;;;;;;;;;;;23.20;33.20;;;;;;5088071;28;19920;-63
2022/02/02 18:25:09;;;;;;;;;;;23.20;33.10;;;;;;5090360;28;19966;-62
2022/02/02 18:27:58;;;;;;;;;;;23.20;33.00;;;;;;5088073;28;19991;-62
2022/02/02 18:30:37;;;;;;;;;;;23.20;32.90;;;;;;5089230;28;19924;-63
2022/02/02 18:36:04;;;;;;;;;;;23.20;32.70;;;;;;5088851;28;19947;-63
2022/02/02 18:40:05;;;;;;;;;;;23.20;32.60;;;;;;5088794;28;19920;-63
2022/02/02 18:42:52;;;;;;;;;;;23.20;32.50;;;;;;5087909;28;19924;-62
2022/02/02 18:44:55;;;;;;;;;;;23.10;32.40;;;;;;5089562;28;19973;-63
2022/02/02 18:53:16;;;;;;;;;;;23.00;32.30;;;;;;5087490;28;20146;-63
2022/02/02 18:55:55;;;;;;;;;;;23.00;32.30;;;;;;5089277;28;19920;-62
2022/02/02 18:58:35;;;;;;;;;;;23.00;32.30;;;;;;5086891;28;19970;-63
2022/02/02 19:01:14;;;;;;;;;;;23.00;32.20;;;;;;5087887;28;19923;-62
2022/02/02 19:03:56;;;;;;;;;;;23.00;32.20;;;;;;5088923;28;20365;-62
2022/02/02 19:06:46;;;;;;;;;;;23.00;32.10;;;;;;5087021;28;19975;-63
2022/02/02 19:37:18;;;;;;;;;;;22.90;31.90;;;;;;5087779;28;19923;-63
2022/02/02 19:37:51;;;;;;;;;;;22.80;31.80;;;;;;5088084;28;19920;-63
2022/02/02 19:40:18;;;;;;;;;;;22.80;31.80;;;;;;5087751;28;19970;-61
2022/02/02 19:56:58;;;;;;;;;;;22.70;31.50;;;;;;5072411;28;19924;-61
2022/02/02 20:02:40;;;;;;;;;;;22.70;31.50;;;;;;5085702;28;19989;-61
2022/02/02 20:05:15;;;;;;;;;;;22.70;31.50;;;;;;5087470;28;19975;-61
2022/02/02 20:08:18;;;;;;;;;;;22.60;31.40;;;;;;5087516;28;19920;-62
2022/02/02 20:10:58;;;;;;;;;;;22.60;31.40;;;;;;5086830;28;19955;-61
2022/02/02 20:13:18;;;;;;;;;;;22.60;31.40;;;;;;5086736;28;20423;-62
2022/02/02 20:15:45;;;;;;;;;;;22.60;31.30;;;;;;5068869;28;20003;-62
2022/02/02 20:21:43;;;;;;;;;;;22.70;31.30;;;;;;5086722;28;19942;-62
2022/02/02 20:24:10;;;;;;;;;;;22.70;31.20;;;;;;5087891;28;20448;-61
2022/02/02 20:26:46;;;;;;;;;;;22.70;31.20;;;;;;5086123;28;20442;-61
2022/02/02 20:29:14;;;;;;;;;;;22.70;31.10;;;;;;5086700;28;20224;-62
2022/02/02 20:31:42;;;;;;;;;;;22.70;31.10;;;;;;5086771;28;20106;-62
2022/02/02 20:34:10;;;;;;;;;;;22.70;31.10;;;;;;5086936;28;20412;-61
2022/02/02 20:36:39;;;;;;;;;;;22.70;31.10;;;;;;5085541;28;20446;-62
2022/02/02 20:39:21;;;;;;;;;;;22.70;31.10;;;;;;5087655;28;19927;-62
2022/02/02 20:41:48;;;;;;;;;;;22.60;31.00;;;;;;5084855;28;19920;-61
2022/02/02 20:44:25;;;;;;;;;;;22.60;31.00;;;;;;5087636;28;19978;-61
2022/02/02 21:00:12;;;;;;;;;;;22.60;31.00;;;;;;5085700;28;20109;-61
2022/02/02 21:04:16;;;;;;;;;;;22.50;31.00;;;;;;5099755;28;20380;-62
2022/02/02 21:06:46;;;;;;;;;;;22.50;31.10;;;;;;5084151;28;20384;-62
2022/02/02 21:14:51;;;;;;;;;;;22.50;30.80;;;;;;5104072;28;20422;-62
2022/02/02 21:17:21;;;;;;;;;;;22.50;30.70;;;;;;5089689;28;20372;-62
2022/02/02 21:19:56;;;;;;;;;;;22.50;30.70;;;;;;5091222;28;19920;-61
2022/02/02 21:22:25;;;;;;;;;;;22.50;30.60;;;;;;5089658;28;19920;-61
2022/02/02 21:25:06;;;;;;;;;;;22.60;30.70;;;;;;5090947;28;20005;-62
2022/02/02 21:27:41;;;;;;;;;;;22.50;30.60;;;;;;5089804;28;20011;-62
2022/02/02 21:30:08;;;;;;;;;;;22.50;30.60;;;;;;5091590;28;19920;-61
2022/02/02 21:32:35;;;;;;;;;;;22.50;30.60;;;;;;5089835;28;19967;-61
2022/02/02 21:35:07;;;;;;;;;;;22.50;30.50;;;;;;5090474;28;19924;-61
2022/02/02 21:37:36;;;;;;;;;;;22.50;30.50;;;;;;5088889;28;19927;-61
2022/02/02 21:40:16;;;;;;;;;;;22.50;30.50;;;;;;5090105;28;19920;-61
2022/02/02 21:42:44;;;;;;;;;;;22.50;30.50;;;;;;5090270;28;19958;-62
2022/02/02 21:45:11;;;;;;;;;;;22.50;30.40;;;;;;5090218;28;20408;-61
2022/02/02 21:47:39;;;;;;;;;;;22.50;30.40;;;;;;5088316;28;20384;-65
2022/02/02 21:50:10;;;;;;;;;;;22.50;30.30;;;;;;5090602;28;20023;-61
2022/02/02 21:52:37;;;;;;;;;;;22.50;30.30;;;;;;5087990;28;19922;-61
2022/02/02 21:55:05;;;;;;;;;;;22.50;30.30;;;;;;5090354;28;20424;-61
2022/02/02 21:57:33;;;;;;;;;;;22.50;30.30;;;;;;5088661;28;20007;-62
2022/02/02 22:00:00;;;;;;;;;;;22.50;30.30;;;;;;5089447;28;19967;-62
2022/02/02 22:02:32;;;;;;;;;;;22.40;30.20;;;;;;5089547;28;19950;-61
2022/02/02 22:05:00;;;;;;;;;;;22.50;30.20;;;;;;5090800;28;20254;-61
2022/02/02 22:07:28;;;;;;;;;;;22.50;30.20;;;;;;5088248;28;19994;-61
2022/02/02 22:10:00;;;;;;;;;;;22.50;30.20;;;;;;5090060;28;19963;-61
2022/02/02 22:12:27;;;;;;;;;;;22.50;30.10;;;;;;5087600;28;20011;-62
2022/02/02 22:14:54;;;;;;;;;;;22.50;30.10;;;;;;5089825;28;19985;-62
2022/02/02 22:17:24;;;;;;;;;;;22.50;30.00;;;;;;5087760;28;20213;-61
2022/02/02 22:19:55;;;;;;;;;;;22.50;30.00;;;;;;5090265;28;19920;-61
2022/02/02 22:22:22;;;;;;;;;;;22.50;30.00;;;;;;5087403;28;20005;-61
2022/02/02 22:24:49;;;;;;;;;;;22.50;30.00;;;;;;5088551;28;20114;-62
2022/02/02 22:27:16;;;;;;;;;;;22.40;30.00;;;;;;5087456;28;20445;-61
2022/02/02 22:29:43;;;;;;;;;;;22.40;30.00;;;;;;5089699;28;20212;-61
2022/02/02 22:32:12;;;;;;;;;;;22.40;30.00;;;;;;5088556;28;19920;-61
2022/02/02 22:34:39;;;;;;;;;;;22.40;30.00;;;;;;5090121;28;19970;-62
2022/02/02 22:37:06;;;;;;;;;;;22.40;30.00;;;;;;5088187;28;20344;-61
2022/02/02 22:39:39;;;;;;;;;;;22.40;30.00;;;;;;5089453;28;20012;-61
2022/02/02 22:42:07;;;;;;;;;;;22.40;30.00;;;;;;5087193;28;19920;-63
2022/02/02 22:44:34;;;;;;;;;;;22.40;30.00;;;;;;5089901;28;20319;-62
2022/02/02 22:47:07;;;;;;;;;;;22.40;30.00;;;;;;5087905;28;20094;-62
2022/02/02 22:49:36;;;;;;;;;;;22.40;30.00;;;;;;5089193;28;20505;-62
2022/02/02 22:52:06;;;;;;;;;;;22.40;30.00;;;;;;5086995;28;20438;-61
2022/02/02 22:54:33;;;;;;;;;;;22.40;30.00;;;;;;5088802;28;19982;-61
2022/02/02 22:57:00;;;;;;;;;;;22.30;30.00;;;;;;5087551;28;19969;-61
2022/02/02 22:59:29;;;;;;;;;;;22.30;30.00;;;;;;5089141;28;19963;-61
2022/02/02 23:02:03;;;;;;;;;;;22.30;30.00;;;;;;5087699;28;19973;-61
2022/02/02 23:04:33;;;;;;;;;;;22.30;30.00;;;;;;5089063;28;20129;-61
2022/02/02 23:07:04;;;;;;;;;;;22.30;30.00;;;;;;5087445;28;19963;-61
2022/02/02 23:09:33;;;;;;;;;;;22.30;30.00;;;;;;5088672;28;20381;-61
2022/02/02 23:12:02;;;;;;;;;;;22.30;30.00;;;;;;5087626;28;19931;-62
2022/02/02 23:14:36;;;;;;;;;;;22.30;30.00;;;;;;5088908;28;20033;-62